createdAt,value
2022-09-30T00:04:53.302Z,99382.69
2022-09-30T00:09:54.095Z,99383.44
2022-09-30T00:14:56.579Z,99396.94
2022-09-30T00:19:57.305Z,99399.53
2022-09-30T00:24:58.106Z,99401.22
2022-09-30T00:30:00.219Z,99384.28
2022-09-30T00:35:00.969Z,99387.72
2022-09-30T00:40:01.839Z,99395.34
2022-09-30T00:45:08.148Z,99403.06
2022-09-30T00:50:20.137Z,99414.09
2022-09-30T00:55:50.879Z,99413.22
2022-09-30T01:00:53.192Z,99416.66
2022-09-30T01:05:54.706Z,99410.72
2022-09-30T01:10:55.795Z,99413.38
2022-09-30T01:16:17.857Z,99420.09
2022-09-30T01:21:46.708Z,99409.06
2022-09-30T01:27:06.096Z,99415.06
2022-09-30T01:32:19.081Z,99412.56
2022-09-30T01:37:29.247Z,99412.50
2022-09-30T01:42:40.428Z,99412.50
2022-09-30T01:47:47.164Z,99421.91
2022-09-30T01:52:57.249Z,99423.66
2022-09-30T01:58:01.889Z,99440.69
2022-09-30T02:03:10.837Z,99439.19
2022-09-30T02:08:30.167Z,99447.81
2022-09-30T02:13:37.350Z,99443.38
2022-09-30T02:18:42.707Z,99445.06
2022-09-30T02:23:46.855Z,99451.91
2022-09-30T02:28:52.873Z,99468.13
2022-09-30T02:33:59.551Z,99477.53
2022-09-30T02:39:04.234Z,99467.25
2022-09-30T02:44:05.691Z,99465.56
2022-09-30T02:49:12.626Z,99463.81
2022-09-30T02:54:20.657Z,99461.31
2022-09-30T02:59:22.874Z,99466.44
2022-09-30T03:04:28.175Z,99463.94
2022-09-30T03:09:29.340Z,99465.63
2022-09-30T03:14:43.271Z,99469.88
2022-09-30T03:20:08.753Z,99464.84
2022-09-30T03:25:28.512Z,99470.84
2022-09-30T03:30:33.054Z,99492.97
2022-09-30T03:35:43.766Z,99496.41
2022-09-30T03:40:54.403Z,99511.72
2022-09-30T03:46:02.490Z,99515.16
2022-09-30T03:51:06.617Z,99505.69
2022-09-30T03:56:07.855Z,99503.13
2022-09-30T04:01:09.209Z,99507.41
2022-09-30T04:06:14.562Z,99508.25
2022-09-30T04:11:16.218Z,99512.50
2022-09-30T04:16:16.983Z,99520.53
2022-09-30T04:21:19.128Z,99507.88
2022-09-30T04:26:20.574Z,99518.22
2022-09-30T04:31:21.605Z,99516.72
2022-09-30T04:36:24.004Z,99530.56
2022-09-30T04:41:25.063Z,99535.78
2022-09-30T04:46:25.903Z,99544.31
2022-09-30T04:51:28.274Z,99551.25
2022-09-30T04:56:29.072Z,99553.00
2022-09-30T05:01:29.845Z,99555.63
2022-09-30T05:06:31.944Z,99552.31
2022-09-30T05:11:32.732Z,99550.66
2022-09-30T05:16:33.562Z,99556.66
2022-09-30T05:21:35.845Z,99572.78
2022-09-30T05:26:36.662Z,99580.47
2022-09-30T05:31:37.582Z,99578.78
2022-09-30T05:36:40.015Z,99584.75
2022-09-30T05:41:40.807Z,99591.47
2022-09-30T05:46:41.589Z,99600.78
2022-09-30T05:51:44.315Z,99617.72
2022-09-30T05:56:45.093Z,99633.75
2022-09-30T06:01:45.923Z,99631.13
2022-09-30T06:06:48.696Z,99622.47
2022-09-30T06:11:49.453Z,99631.75
2022-09-30T06:16:50.638Z,99624.84
2022-09-30T06:21:52.928Z,99628.19
2022-09-30T06:26:54.332Z,99639.97
2022-09-30T06:31:55.255Z,99651.88
2022-09-30T06:36:57.482Z,99648.28
2022-09-30T06:41:58.346Z,99644.72
2022-09-30T06:46:59.810Z,99653.81
2022-09-30T06:52:02.431Z,99656.97
2022-09-30T06:57:03.210Z,99663.63
2022-09-30T07:02:04.089Z,99672.84
2022-09-30T07:07:06.918Z,99669.09
2022-09-30T07:12:07.709Z,99685.38
2022-09-30T07:17:08.460Z,99688.44
2022-09-30T07:22:30.162Z,99684.00
2022-09-30T07:27:33.536Z,99683.72
2022-09-30T07:32:34.337Z,99696.28
2022-09-30T07:37:37.035Z,99699.78
2022-09-30T07:42:38.953Z,99702.28
2022-09-30T07:47:39.778Z,99704.91
2022-09-30T07:52:41.870Z,99714.34
2022-09-30T07:57:42.655Z,99720.06
2022-09-30T08:02:43.417Z,99726.53
2022-09-30T08:07:45.534Z,99726.22
2022-09-30T08:12:46.270Z,99728.25
2022-09-30T08:17:47.004Z,99730.00
2022-09-30T08:22:49.635Z,99732.69
2022-09-30T08:27:50.771Z,99726.91
2022-09-30T08:32:51.579Z,99737.25
2022-09-30T08:37:54.737Z,99739.84
2022-09-30T08:43:13.773Z,99741.78
2022-09-30T08:48:31.050Z,99743.41
2022-09-30T08:53:37.662Z,99739.53
2022-09-30T08:58:42.124Z,99735.25
2022-09-30T09:03:43.121Z,99722.56
2022-09-30T09:08:59.547Z,99734.41
2022-09-30T09:14:04.013Z,99746.53
2022-09-30T09:19:10.771Z,99746.25
2022-09-30T09:24:17.328Z,99749.03
2022-09-30T09:29:35.486Z,99751.31
2022-09-30T09:34:39.642Z,99748.16
2022-09-30T09:40:09.759Z,99743.03
2022-09-30T09:45:17.883Z,99737.56
2022-09-30T09:50:25.219Z,99738.81
2022-09-30T09:55:27.653Z,99748.41
2022-09-30T10:00:46.291Z,99741.03
2022-09-30T10:05:59.729Z,99742.06
2022-09-30T10:11:04.288Z,99730.38
2022-09-30T10:16:06.235Z,99729.59
2022-09-30T10:21:20.332Z,99730.09
2022-09-30T10:26:24.717Z,99732.97
2022-09-30T10:31:28.341Z,99731.66
2022-09-30T10:36:33.401Z,99732.22
2022-09-30T10:41:38.095Z,99732.50
2022-09-30T10:46:41.370Z,99733.47
2022-09-30T10:51:47.133Z,99738.94
2022-09-30T10:56:54.565Z,99741.03
2022-09-30T11:02:05.235Z,99740.56
2022-09-30T11:07:17.922Z,99740.13
2022-09-30T11:12:26.983Z,99737.19
2022-09-30T11:17:33.853Z,99734.72
2022-09-30T11:22:47.887Z,99732.78
2022-09-30T11:28:09.652Z,99732.25
2022-09-30T11:33:36.242Z,99728.03
2022-09-30T11:39:05.370Z,99727.16
2022-09-30T11:44:23.032Z,99721.75
2022-09-30T11:49:39.408Z,99714.72
2022-09-30T11:55:00.972Z,99711.13
2022-09-30T12:00:08.244Z,99710.72
2022-09-30T12:05:20.690Z,99696.47
2022-09-30T12:10:25.740Z,99703.91
2022-09-30T12:15:28.710Z,99705.03
2022-09-30T12:20:33.480Z,99710.66
2022-09-30T12:25:41.698Z,99695.00
2022-09-30T12:30:44.453Z,99697.97
2022-09-30T12:36:20.462Z,99688.63
2022-09-30T12:41:35.325Z,99687.06
2022-09-30T12:47:03.891Z,99692.97
2022-09-30T12:52:07.656Z,99694.06
2022-09-30T12:57:10.231Z,99686.69
2022-09-30T13:02:31.831Z,99692.47
2022-09-30T13:07:34.466Z,99689.41
2022-09-30T13:12:46.753Z,99672.06
2022-09-30T13:17:51.562Z,99684.34
2022-09-30T13:22:59.979Z,99682.53
2022-09-30T13:28:29.879Z,99692.00
2022-09-30T13:33:47.204Z,99700.88
2022-09-30T13:39:09.697Z,99703.31
2022-09-30T13:44:17.771Z,99706.50
2022-09-30T13:49:23.697Z,99705.66
2022-09-30T13:54:30.126Z,99720.28
2022-09-30T14:00:01.788Z,99726.03
2022-09-30T14:05:36.381Z,99720.84
2022-09-30T14:10:54.346Z,99715.66
2022-09-30T14:16:36.934Z,99725.03
2022-09-30T14:21:43.033Z,99714.41
2022-09-30T14:27:01.985Z,99713.06
2022-09-30T14:32:12.678Z,99713.59
2022-09-30T14:37:22.755Z,99719.88
2022-09-30T14:42:29.617Z,99714.31
2022-09-30T14:47:32.044Z,99716.34
2022-09-30T14:52:37.988Z,99721.75
2022-09-30T14:57:38.905Z,99721.59
2022-09-30T15:02:46.808Z,99724.25
2022-09-30T15:07:49.338Z,99725.03
2022-09-30T15:12:51.666Z,99718.59
2022-09-30T15:17:55.446Z,99722.78
2022-09-30T15:22:59.897Z,99726.25
2022-09-30T15:28:00.809Z,99725.09
2022-09-30T15:33:03.392Z,99720.34
2022-09-30T15:38:10.942Z,99722.97
2022-09-30T15:43:15.684Z,99732.38
2022-09-30T15:48:36.070Z,99740.53
2022-09-30T15:53:50.007Z,99739.84
2022-09-30T15:58:56.510Z,99742.44
2022-09-30T16:03:59.410Z,99751.09
2022-09-30T16:09:06.500Z,99744.63
2022-09-30T16:14:11.292Z,99745.94
2022-09-30T16:19:18.392Z,99751.00
2022-09-30T16:24:47.290Z,99748.78
2022-09-30T16:29:48.107Z,99750.13
2022-09-30T16:34:48.973Z,99750.91
2022-09-30T16:39:51.496Z,99754.69
2022-09-30T16:44:52.284Z,99754.47
2022-09-30T16:49:53.252Z,99760.78
2022-09-30T16:54:55.410Z,99764.06
2022-09-30T16:59:56.274Z,99778.69
2022-09-30T17:04:57.068Z,99775.09
2022-09-30T17:09:59.679Z,99779.94
2022-09-30T17:15:00.425Z,99786.41
2022-09-30T17:20:01.277Z,99788.75
2022-09-30T17:25:03.521Z,99782.03
2022-09-30T17:30:05.020Z,99791.03
2022-09-30T17:35:08.405Z,99799.13
2022-09-30T17:40:25.164Z,99797.72
2022-09-30T17:45:27.966Z,99806.69
2022-09-30T17:50:29.015Z,99801.00
2022-09-30T17:55:31.307Z,99794.06
2022-09-30T18:00:32.602Z,99793.34
2022-09-30T18:05:34.121Z,99796.97
2022-09-30T18:10:38.660Z,99808.09
2022-09-30T18:15:40.644Z,99809.72
2022-09-30T18:20:44.913Z,99801.13
2022-09-30T18:25:49.623Z,99807.00
2022-09-30T18:30:50.435Z,99811.34
2022-09-30T18:35:51.745Z,99816.69
2022-09-30T18:40:54.545Z,99808.97
2022-09-30T18:45:56.847Z,99817.56
2022-09-30T18:51:03.337Z,99816.16
2022-09-30T18:56:06.113Z,99813.94
2022-09-30T19:01:07.780Z,99817.00
2022-09-30T19:06:09.414Z,99815.53
2022-09-30T19:11:14.744Z,99813.94
2022-09-30T19:16:18.367Z,99814.31
2022-09-30T19:21:22.169Z,99802.44
2022-09-30T19:26:27.097Z,99804.28
2022-09-30T19:31:28.479Z,99798.66
2022-09-30T19:36:41.348Z,99795.41
2022-09-30T19:41:49.986Z,99801.41
2022-09-30T19:46:51.210Z,99793.03
2022-09-30T19:51:53.255Z,99793.00
2022-09-30T19:56:55.336Z,99799.06
2022-09-30T20:01:56.190Z,99783.00
2022-09-30T20:06:57.020Z,99792.53
2022-09-30T20:11:59.212Z,99784.13
2022-09-30T20:17:00.022Z,99793.59
2022-09-30T20:22:00.911Z,99796.16
2022-09-30T20:27:03.011Z,99793.78
2022-09-30T20:32:04.003Z,99796.44
2022-09-30T20:37:04.799Z,99799.34
2022-09-30T20:42:07.496Z,99800.03
2022-09-30T20:47:08.206Z,99813.00
2022-09-30T20:52:08.947Z,99809.63
2022-09-30T20:57:11.013Z,99817.41
2022-09-30T21:02:14.099Z,99815.84
2022-09-30T21:07:14.980Z,99817.56
2022-09-30T21:12:17.243Z,99827.06
2022-09-30T21:17:17.991Z,99827.03
2022-09-30T21:22:18.767Z,99832.28
2022-09-30T21:27:20.857Z,99821.22
2022-09-30T21:32:21.634Z,99823.13
2022-09-30T21:37:22.406Z,99830.78
2022-09-30T21:42:24.515Z,99824.84
2022-09-30T21:47:25.410Z,99817.28
2022-09-30T21:52:28.604Z,99820.78
2022-09-30T21:57:34.135Z,99810.59
2022-09-30T22:02:36.291Z,99818.28
2022-09-30T22:07:38.042Z,99820.81
2022-09-30T22:12:40.332Z,99808.19
2022-09-30T22:17:41.152Z,99818.47
2022-09-30T22:22:41.877Z,99819.34
2022-09-30T22:27:44.173Z,99815.16
2022-09-30T22:32:44.965Z,99818.56
2022-09-30T22:38:09.496Z,99818.66
2022-09-30T22:43:11.564Z,99819.53
2022-09-30T22:48:21.286Z,99828.16
2022-09-30T22:53:22.025Z,99825.63
2022-09-30T22:58:25.280Z,99829.88
2022-09-30T23:03:26.952Z,99836.75
2022-09-30T23:08:31.996Z,99841.88
2022-09-30T23:13:34.897Z,99847.00
2022-09-30T23:18:36.001Z,99849.59
2022-09-30T23:23:38.125Z,99853.91
2022-09-30T23:28:40.819Z,99851.38
2022-09-30T23:33:47.101Z,99865.03
2022-09-30T23:38:48.178Z,99848.03
2022-09-30T23:43:50.280Z,99859.97
2022-09-30T23:48:51.159Z,99853.19
2022-09-30T23:53:51.896Z,99845.53
2022-09-30T23:58:53.984Z,99858.31
